Time;durP1;ratioP1;P1;durP2;ratioP2;P2;SDS_P1;SDS_P2;PMS_P1;PMS_P2;Temp;Humidity;BMP_temperature;BMP_pressure;BME280_temperature;BME280_humidity;BME280_pressure;Samples;Min_cycle;Max_cycle;Signal;HPM_P1;HPM_P2
2022/11/04 00:00:29;;;;;;;0.90;0.57;;;;;;;12.10;99.81;99286.63;8326649;28;20038;-52
2022/11/04 00:04:30;;;;;;;1.05;0.60;;;;;;;12.14;99.57;99293.34;8326299;28;20041;-54
2022/11/04 00:08:31;;;;;;;1.58;0.70;;;;;;;12.15;100.00;99288.78;8325402;28;20172;-54
2022/11/04 00:12:31;;;;;;;2.70;0.88;;;;;;;12.16;100.00;99307.56;8308117;28;20089;-51
2022/11/04 00:17:32;;;;;;;1.20;0.88;;;;;;;12.23;100.00;99313.94;8292862;28;20038;-51
2022/11/04 00:29:36;;;;;;;2.33;1.23;;;;;;;12.42;99.72;99328.88;8321492;28;20501;-55
2022/11/04 00:33:37;;;;;;;2.88;1.05;;;;;;;12.46;100.00;99333.78;8325270;28;20456;-53
2022/11/04 00:37:39;;;;;;;2.13;1.30;;;;;;;12.50;99.46;99326.13;8325063;28;20486;-54
2022/11/04 00:41:40;;;;;;;2.30;1.00;;;;;;;12.51;99.35;99334.09;8307859;28;20376;-53
2022/11/04 00:45:41;;;;;;;2.45;0.98;;;;;;;12.49;99.12;99330.69;8325228;28;20053;-54
2022/11/04 00:49:42;;;;;;;1.50;0.90;;;;;;;12.43;99.04;99336.00;8331170;28;20049;-50
2022/11/04 00:53:42;;;;;;;2.10;1.15;;;;;;;12.35;99.44;99338.78;8328114;28;20059;-52
2022/11/04 00:57:43;;;;;;;2.03;0.85;;;;;;;12.31;98.44;99348.28;8330327;28;20041;-51
2022/11/04 01:01:44;;;;;;;2.00;0.77;;;;;;;12.17;99.13;99357.19;8330439;28;20038;-54
2022/11/04 01:05:45;;;;;;;2.03;0.75;;;;;;;12.03;99.05;99366.06;8331395;28;20042;-53
2022/11/04 01:09:47;;;;;;;1.50;0.80;;;;;;;11.96;98.86;99387.63;8329897;28;20131;-51
2022/11/04 01:13:50;;;;;;;4.22;0.70;;;;;;;11.85;99.32;99383.44;8302845;28;20387;-52
2022/11/04 01:17:51;;;;;;;2.92;0.88;;;;;;;11.77;98.80;99397.00;8297541;28;20046;-54
2022/11/04 01:21:52;;;;;;;2.67;0.80;;;;;;;11.71;98.00;99400.41;8296406;28;20119;-52
2022/11/04 01:25:53;;;;;;;1.23;0.68;;;;;;;11.65;98.69;99411.94;8296070;28;20720;-51
2022/11/04 01:29:53;;;;;;;4.70;0.75;;;;;;;11.57;98.82;99409.25;8328685;28;20056;-55
2022/11/04 01:33:55;;;;;;;5.07;0.90;;;;;;;11.46;98.06;99409.59;8329655;28;20044;-53
2022/11/04 01:37:57;;;;;;;5.10;1.10;;;;;;;11.34;98.80;99419.09;8328625;28;20038;-51
2022/11/04 01:41:58;;;;;;;5.07;0.85;;;;;;;11.18;99.01;99408.31;8329337;28;20071;-52
2022/11/04 01:46:00;;;;;;;4.75;0.98;;;;;;;11.17;98.75;99414.75;8328423;28;20041;-51
2022/11/04 01:50:21;;;;;;;4.25;0.85;;;;;;;11.11;98.83;99406.47;8342867;28;20060;-52
2022/11/04 01:54:22;;;;;;;6.50;0.90;;;;;;;10.98;99.15;99412.38;8329411;28;20042;-52
2022/11/04 01:58:32;;;;;;;5.50;0.60;;;;;;;10.93;99.40;99414.75;8328714;28;20073;-52
2022/11/04 02:02:39;;;;;;;2.97;0.90;;;;;;;10.86;100.00;99419.13;8340813;28;20099;-54
2022/11/04 02:06:40;;;;;;;6.60;1.10;;;;;;;10.74;100.00;99425.88;8329073;28;20092;-55
2022/11/04 02:10:49;;;;;;;4.97;0.63;;;;;;;10.71;100.00;99414.59;8328406;28;20157;-53
2022/11/04 02:14:51;;;;;;;4.00;1.08;;;;;;;10.64;100.00;99409.00;8299536;28;20494;-51
2022/11/04 02:19:09;;;;;;;6.15;1.08;;;;;;;10.66;100.00;99396.16;8295124;28;20046;-51
2022/11/04 02:23:42;;;;;;;6.93;1.10;;;;;;;10.66;100.00;99385.34;8328404;28;20521;-53
2022/11/04 02:28:23;;;;;;;5.97;1.30;;;;;;;10.71;99.99;99377.59;8325627;28;21617;-51
2022/11/04 02:36:53;;;;;;;6.75;0.80;;;;;;;10.71;98.81;99377.59;8320280;28;20479;-51
2022/11/04 02:41:21;;;;;;;8.98;1.00;;;;;;;10.64;98.78;99381.16;8321151;28;20121;-50
2022/11/04 02:45:44;;;;;;;5.10;1.50;;;;;;;10.53;98.32;99367.97;8321046;28;20129;-52
2022/11/04 02:50:17;;;;;;;5.78;1.00;;;;;;;10.37;99.03;99376.88;8319247;28;20061;-50
2022/11/04 02:54:25;;;;;;;8.25;0.93;;;;;;;10.17;100.00;99367.41;8317516;28;20045;-52
2022/11/04 02:58:33;;;;;;;3.17;0.80;;;;;;;10.01;100.00;99370.06;8321135;28;20510;-51
2022/11/04 03:02:40;;;;;;;6.38;0.82;;;;;;;9.81;100.00;99372.19;8321034;28;20092;-53
2022/11/04 03:06:46;;;;;;;3.42;0.70;;;;;;;9.68;100.00;99374.50;8321125;28;20030;-51
2022/11/04 03:10:53;;;;;;;4.50;0.70;;;;;;;9.48;100.00;99385.69;8321124;28;20061;-51
2022/11/04 03:15:00;;;;;;;3.22;1.00;;;;;;;9.26;100.00;99392.50;8319548;28;20465;-53
2022/11/04 03:19:12;;;;;;;4.45;1.00;;;;;;;9.10;100.00;99391.56;8318935;28;20149;-51
2022/11/04 03:23:14;;;;;;;5.05;0.98;;;;;;;9.01;100.00;99403.28;8318095;28;20083;-54
2022/11/04 03:27:56;;;;;;;5.68;1.13;;;;;;;8.97;100.00;99391.13;8317508;28;20069;-50
2022/11/04 03:32:21;;;;;;;6.60;0.90;;;;;;;9.05;100.00;99393.88;8318472;28;20049;-53
2022/11/04 03:36:23;;;;;;;9.57;1.10;;;;;;;9.16;100.00;99390.91;8319796;28;20049;-54
2022/11/04 03:40:24;;;;;;;6.25;1.15;;;;;;;9.17;100.00;99387.22;8320168;28;20176;-51
2022/11/04 03:44:27;;;;;;;8.45;1.33;;;;;;;9.16;100.00;99385.53;8307207;28;20038;-54
2022/11/04 03:48:28;;;;;;;6.07;1.30;;;;;;;9.17;100.00;99392.59;8313740;28;20033;-50
2022/11/04 03:52:29;;;;;;;11.07;1.65;;;;;;;9.16;100.00;99374.75;8297628;28;20045;-50
2022/11/04 03:56:54;;;;;;;9.30;1.20;;;;;;;9.08;100.00;99385.47;8297849;28;20038;-51
2022/11/04 04:01:09;;;;;;;4.68;1.10;;;;;;;9.05;100.00;99383.09;8287400;28;20042;-51
2022/11/04 04:05:21;;;;;;;4.57;1.38;;;;;;;9.10;100.00;99388.84;8296753;28;20052;-50
2022/11/04 04:09:26;;;;;;;11.52;1.35;;;;;;;9.15;100.00;99383.84;8296748;28;20063;-50
2022/11/04 04:17:53;;;;;;;5.95;1.38;;;;;;;9.44;100.00;99384.34;8409087;27;20489;-50
2022/11/04 04:22:02;;;;;;;5.30;1.40;;;;;;;9.41;100.00;99384.66;8404064;27;20043;-53
2022/11/04 04:27:39;;;;;;;8.82;1.50;;;;;;;9.41;100.00;99384.66;8404774;27;20060;-52
2022/11/04 04:30:29;;;;;;;2.25;1.05;;;;;;;9.37;100.00;99383.28;8402856;27;20036;-50
2022/11/04 04:34:32;;;;;;;9.25;1.00;;;;;;;9.26;100.00;99379.03;8404299;27;20046;-51
2022/11/04 04:47:22;;;;;;;8.27;1.60;;;;;;;8.82;100.00;99404.34;8406485;27;20048;-51
2022/11/04 04:51:23;;;;;;;10.07;1.58;;;;;;;8.30;100.00;99401.69;8403490;27;20557;-54
2022/11/04 04:55:24;;;;;;;3.35;1.50;;;;;;;8.07;100.00;99398.53;8420888;28;20052;-50
2022/11/04 04:59:25;;;;;;;8.32;1.30;;;;;;;8.04;100.00;99390.78;8417383;28;20044;-52
2022/11/04 05:03:25;;;;;;;10.63;2.10;;;;;;;8.09;100.00;99394.69;8419138;28;20561;-54
2022/11/04 05:07:26;;;;;;;6.32;1.30;;;;;;;8.24;100.00;99391.53;8419807;28;20063;-54
2022/11/04 05:11:27;;;;;;;6.45;1.40;;;;;;;8.34;100.00;99389.59;8410289;28;20036;-54
2022/11/04 05:15:28;;;;;;;6.20;1.40;;;;;;;8.45;100.00;99400.16;8384355;28;20052;-55
2022/11/04 05:19:29;;;;;;;8.48;1.45;;;;;;;8.45;100.00;99397.44;8383804;28;20040;-54
2022/11/04 05:23:30;;;;;;;6.18;1.40;;;;;;;8.05;100.00;99393.31;8384670;28;20037;-54
2022/11/04 05:27:30;;;;;;;3.38;1.73;;;;;;;7.95;100.00;99397.94;8377121;28;20045;-52
2022/11/04 05:31:31;;;;;;;4.72;1.67;;;;;;;7.71;100.00;99389.56;8378415;28;20417;-53
2022/11/04 05:35:33;;;;;;;3.92;1.40;;;;;;;7.47;100.00;99402.72;8379510;28;20540;-52
2022/11/04 05:39:33;;;;;;;15.27;1.95;;;;;;;7.49;100.00;99395.34;8378661;28;20410;-52
2022/11/04 05:43:34;;;;;;;7.68;2.00;;;;;;;7.51;100.00;99393.34;8374776;28;20037;-54
2022/11/04 05:47:35;;;;;;;6.00;1.88;;;;;;;7.71;100.00;99389.56;8378771;28;20039;-54
2022/11/04 05:51:36;;;;;;;7.15;1.88;;;;;;;7.42;100.00;99390.72;8378788;28;20029;-52
2022/11/04 05:55:37;;;;;;;9.55;2.17;;;;;;;7.26;100.00;99385.13;8378854;28;20124;-55
2022/11/04 05:59:37;;;;;;;4.00;1.48;;;;;;;7.09;100.00;99391.25;8377281;28;20146;-54
2022/11/04 06:03:38;;;;;;;7.53;1.60;;;;;;;7.09;100.00;99392.13;8373104;28;20117;-51
2022/11/04 06:07:39;;;;;;;6.88;1.88;;;;;;;7.02;100.00;99399.03;8373069;28;20123;-54
2022/11/04 06:11:40;;;;;;;9.80;1.80;;;;;;;6.99;100.00;99402.06;8375708;28;20374;-53
2022/11/04 06:15:40;;;;;;;6.65;2.00;;;;;;;6.82;100.00;99402.78;8382646;28;20079;-53
2022/11/04 06:19:41;;;;;;;9.65;1.77;;;;;;;6.74;100.00;99408.00;8370280;28;20037;-51
2022/11/04 06:23:42;;;;;;;10.02;1.75;;;;;;;6.69;100.00;99421.03;8370578;28;20043;-51
2022/11/04 06:27:43;;;;;;;11.10;2.75;;;;;;;6.97;100.00;99420.16;8390611;28;20485;-53
2022/11/04 06:31:44;;;;;;;7.40;2.40;;;;;;;7.09;100.00;99424.38;8375053;28;20443;-54
2022/11/04 06:35:44;;;;;;;8.75;2.40;;;;;;;7.50;100.00;99434.69;8375802;28;20398;-52
2022/11/04 06:39:45;;;;;;;13.77;3.22;;;;;;;7.39;100.00;99434.88;8374278;28;20044;-52
2022/11/04 06:43:46;;;;;;;11.98;3.47;;;;;;;7.53;100.00;99463.97;8371151;28;20093;-54
2022/11/04 06:47:47;;;;;;;8.02;3.33;;;;;;;7.61;100.00;99457.84;8339308;28;20033;-52
2022/11/04 06:51:48;;;;;;;7.65;2.90;;;;;;;7.71;100.00;99464.88;8338918;28;20037;-55
2022/11/04 06:55:51;;;;;;;8.88;2.90;;;;;;;7.85;100.00;99467.09;8341213;28;20536;-51
2022/11/04 06:59:52;;;;;;;7.10;3.97;;;;;;;7.88;100.00;99474.88;8362293;28;20186;-55
2022/11/04 07:03:55;;;;;;;29.13;13.52;;;;;;;8.00;100.00;99483.59;8372381;28;20052;-54
2022/11/04 07:07:56;;;;;;;17.58;7.93;;;;;;;8.16;100.00;99485.59;8372438;28;20037;-52
2022/11/04 07:11:56;;;;;;;17.85;8.68;;;;;;;8.32;100.00;99485.84;8376657;28;20040;-55
2022/11/04 07:15:57;;;;;;;18.80;9.60;;;;;;;8.48;100.00;99483.31;8387199;28;20102;-52
2022/11/04 07:19:58;;;;;;;13.75;6.20;;;;;;;8.52;100.00;99490.09;8351547;28;20236;-54
2022/11/04 07:24:00;;;;;;;7.50;3.10;;;;;;;8.63;100.00;99496.09;8350440;28;20036;-54
2022/11/04 07:28:01;;;;;;;10.55;3.53;;;;;;;8.84;100.00;99510.09;8383261;28;20049;-54
2022/11/04 07:32:02;;;;;;;14.68;6.32;;;;;;;8.94;100.00;99523.53;8371274;28;20045;-54
2022/11/04 07:36:05;;;;;;;12.35;7.13;;;;;;;9.04;100.00;99537.75;8371743;28;20065;-54
2022/11/04 07:40:06;;;;;;;12.38;5.00;;;;;;;9.14;100.00;99550.16;8371073;28;20052;-55
2022/11/04 07:44:10;;;;;;;10.98;4.80;;;;;;;9.30;100.00;99554.84;8371940;28;20059;-55
2022/11/04 07:48:11;;;;;;;11.35;3.90;;;;;;;9.45;100.00;99561.34;8368406;28;20567;-55
2022/11/04 07:52:11;;;;;;;12.75;5.18;;;;;;;9.52;100.00;99554.34;8387925;28;20390;-55
2022/11/04 07:56:12;;;;;;;6.00;2.50;;;;;;;9.59;100.00;99555.41;8386639;28;20041;-54
2022/11/04 08:00:15;;;;;;;13.43;5.53;;;;;;;9.59;100.00;99560.78;8375112;28;20072;-54
2022/11/04 08:04:15;;;;;;;9.05;4.47;;;;;;;9.59;100.00;99567.06;8371165;28;20049;-54
2022/11/04 08:08:16;;;;;;;17.60;7.18;;;;;;;9.63;100.00;99568.41;8349149;28;20037;-55
2022/11/04 08:12:16;;;;;;;11.40;5.45;;;;;;;9.68;100.00;99565.25;8361028;28;20063;-55
2022/11/04 08:16:20;;;;;;;10.50;5.05;;;;;;;9.76;100.00;99562.63;8361963;28;20406;-55
2022/11/04 08:20:21;;;;;;;26.08;11.48;;;;;;;9.84;100.00;99560.81;8353454;28;20454;-55
2022/11/04 08:24:22;;;;;;;21.08;7.00;;;;;;;9.89;100.00;99557.63;8354843;28;20111;-55
2022/11/04 08:28:23;;;;;;;18.38;8.50;;;;;;;10.01;100.00;99561.75;8360415;28;20045;-55
2022/11/04 08:32:24;;;;;;;18.75;6.78;;;;;;;10.09;100.00;99569.09;8366540;28;20040;-55
2022/11/04 08:36:31;;;;;;;11.30;4.88;;;;;;;10.15;100.00;99568.44;8352489;28;20084;-55
2022/11/04 08:40:32;;;;;;;8.40;3.45;;;;;;;10.24;100.00;99573.69;8352075;28;20571;-55
2022/11/04 08:44:32;;;;;;;13.02;5.50;;;;;;;10.32;100.00;99571.06;8357798;28;20036;-55
2022/11/04 08:48:35;;;;;;;9.18;2.83;;;;;;;10.44;100.00;99560.78;8369293;28;20111;-55
2022/11/04 08:52:35;;;;;;;8.32;3.20;;;;;;;10.61;100.00;99568.78;8363236;28;20037;-55
2022/11/04 08:56:38;;;;;;;15.77;3.03;;;;;;;10.78;100.00;99562.44;8344016;28;20520;-55
2022/11/04 09:00:38;;;;;;;7.78;2.50;;;;;;;10.87;100.00;99566.84;8340810;28;20037;-54
2022/11/04 09:04:39;;;;;;;11.38;4.10;;;;;;;10.89;100.00;99564.81;8375019;28;20072;-55
2022/11/04 09:08:40;;;;;;;9.02;2.95;;;;;;;10.98;100.00;99568.41;8376627;28;20406;-55
2022/11/04 09:12:41;;;;;;;10.45;2.80;;;;;;;11.15;100.00;99576.34;8375320;28;20037;-51
2022/11/04 09:17:57;;;;;;;4.72;2.42;;;;;;;11.58;100.00;99573.31;8390367;28;20464;-54
2022/11/04 09:21:57;;;;;;;7.22;3.63;;;;;;;11.58;100.00;99567.91;8388780;28;20098;-55
2022/11/04 09:26:05;;;;;;;9.10;3.70;;;;;;;11.61;100.00;99567.56;8384599;28;20525;-54
2022/11/04 09:30:06;;;;;;;10.23;6.10;;;;;;;11.81;100.00;99573.50;8391620;28;20036;-54
2022/11/04 09:34:07;;;;;;;9.55;4.57;;;;;;;12.29;100.00;99557.13;8376656;28;20049;-53
2022/11/04 09:38:08;;;;;;;6.78;2.38;;;;;;;13.79;94.62;99543.78;8394554;28;20524;-55
2022/11/04 09:42:48;;;;;;;6.63;2.13;;;;;;;16.89;81.57;99552.81;8394492;28;20040;-55
2022/11/04 09:46:53;;;;;;;4.97;1.50;;;;;;;17.05;75.42;99568.84;8391940;28;20115;-55
2022/11/04 09:50:57;;;;;;;5.70;1.80;;;;;;;15.73;81.78;99581.00;8391049;28;20119;-52
2022/11/04 09:55:06;;;;;;;7.63;1.40;;;;;;;15.16;84.75;99576.41;8393364;28;20075;-55
2022/11/04 09:59:10;;;;;;;4.72;1.83;;;;;;;14.58;85.98;99576.53;8391994;28;20483;-53
2022/11/04 10:17:25;;;;;;;3.47;1.70;;;;;;;13.64;93.34;99605.38;8414109;27;20366;-55
2022/11/04 10:21:43;;;;;;;7.53;1.98;;;;;;;13.28;95.27;99612.41;8401749;27;20048;-53
2022/11/04 10:26:23;;;;;;;6.47;2.10;;;;;;;13.32;98.32;99611.03;8401074;27;20763;-52
2022/11/04 10:30:25;;;;;;;8.55;2.00;;;;;;;13.74;93.61;99612.25;8403881;27;20063;-54
2022/11/04 10:34:33;;;;;;;11.30;3.05;;;;;;;14.17;92.10;99602.47;8388996;27;20064;-54
2022/11/04 10:38:39;;;;;;;7.00;1.95;;;;;;;13.98;92.83;99603.03;8368241;28;20064;-54
2022/11/04 10:42:40;;;;;;;12.05;2.22;;;;;;;13.61;93.41;99605.72;8368881;28;20564;-53
2022/11/04 10:46:56;;;;;;;5.72;2.30;;;;;;;13.44;95.13;99612.31;8374292;28;20424;-51
2022/11/04 10:50:58;;;;;;;8.50;2.25;;;;;;;13.45;97.01;99612.13;8400311;27;20043;-52
2022/11/04 10:54:58;;;;;;;11.63;2.47;;;;;;;13.36;96.89;99613.19;8395209;27;20443;-53
2022/11/04 10:59:25;;;;;;;6.75;1.90;;;;;;;13.32;95.76;99624.59;8399069;27;20068;-52
2022/11/04 11:03:31;;;;;;;4.55;1.50;;;;;;;13.48;93.62;99635.38;8394641;27;20462;-52
2022/11/04 11:07:36;;;;;;;7.97;1.88;;;;;;;13.61;94.12;99639.16;8397355;27;20036;-55
2022/11/04 11:11:44;;;;;;;6.68;1.35;;;;;;;13.81;92.15;99634.06;8398274;27;20417;-51
2022/11/04 11:15:45;;;;;;;5.97;1.55;;;;;;;14.19;90.57;99643.94;8422906;28;20043;-52
2022/11/04 11:20:22;;;;;;;5.80;1.70;;;;;;;15.23;86.25;99639.97;8399246;28;20093;-52
2022/11/04 11:24:25;;;;;;;12.35;1.60;;;;;;;17.78;75.62;99639.06;8398471;28;20584;-53
2022/11/04 11:28:26;;;;;;;3.90;0.90;;;;;;;19.35;66.28;99638.66;8376495;28;20033;-51
2022/11/04 11:32:34;;;;;;;6.40;0.70;;;;;;;18.09;68.53;99640.13;8382425;28;20040;-54
2022/11/04 11:36:37;;;;;;;5.25;1.20;;;;;;;16.27;76.30;99655.69;8343850;28;20048;-54
2022/11/04 11:40:38;;;;;;;4.90;1.20;;;;;;;15.63;77.38;99644.84;8343262;28;20044;-51
2022/11/04 11:44:43;;;;;;;7.07;1.30;;;;;;;16.35;77.44;99631.81;8353491;28;20048;-52
2022/11/04 11:48:50;;;;;;;5.95;0.95;;;;;;;16.75;73.13;99643.91;8372335;28;20139;-51
2022/11/04 11:52:52;;;;;;;7.13;1.02;;;;;;;17.46;72.26;99646.13;8377237;28;20063;-52
2022/11/04 11:56:55;;;;;;;5.65;0.90;;;;;;;17.78;72.34;99648.06;8388430;28;20341;-53
2022/11/04 12:01:03;;;;;;;5.40;1.15;;;;;;;16.11;76.55;99654.13;8366000;28;20068;-54
2022/11/04 12:05:09;;;;;;;3.40;0.85;;;;;;;15.24;79.87;99659.88;8405049;28;20036;-53
2022/11/04 12:09:50;;;;;;;5.57;1.50;;;;;;;14.81;82.72;99661.63;8376305;28;20052;-53
2022/11/04 12:13:57;;;;;;;5.82;1.10;;;;;;;14.83;81.89;99665.00;8353185;28;20108;-51
2022/11/04 12:18:25;;;;;;;10.98;1.00;;;;;;;15.46;79.80;99667.91;8370429;28;20174;-53
2022/11/04 12:22:56;;;;;;;5.97;0.50;;;;;;;17.04;75.85;99665.47;8407942;28;20086;-54
2022/11/04 12:27:17;;;;;;;6.85;1.00;;;;;;;16.72;74.52;99667.00;8407742;28;20041;-52
2022/11/04 12:31:32;;;;;;;6.75;1.35;;;;;;;16.39;77.47;99676.78;8356333;28;20077;-51
2022/11/04 12:36:01;;;;;;;3.20;0.80;;;;;;;15.86;77.54;99671.06;8346432;28;20037;-53
2022/11/04 12:40:27;;;;;;;3.92;0.50;;;;;;;15.56;76.76;99668.44;8349466;28;20040;-51
2022/11/04 12:44:37;;;;;;;5.65;0.50;;;;;;;15.32;78.19;99678.81;8352865;28;20064;-53
2022/11/04 12:53:51;;;;;;;2.35;0.70;;;;;;;15.03;79.11;99692.47;8315796;28;20407;-54
2022/11/04 12:58:05;;;;;;;6.22;0.80;;;;;;;14.81;80.61;99687.97;8307680;28;20032;-51
2022/11/04 13:02:19;;;;;;;3.65;0.70;;;;;;;14.82;81.34;99697.84;8297611;28;20488;-52
2022/11/04 13:06:27;;;;;;;3.73;0.70;;;;;;;15.13;80.89;99693.03;8313376;28;20557;-55
2022/11/04 13:10:42;;;;;;;3.97;0.73;;;;;;;15.26;80.60;99704.97;8304170;28;20034;-54
2022/11/04 13:14:50;;;;;;;3.42;1.00;;;;;;;15.29;81.15;99699.13;8289305;28;20299;-54
2022/11/04 13:18:51;;;;;;;2.90;1.10;;;;;;;15.45;81.87;99707.09;8280005;28;20089;-55
2022/11/04 13:22:56;;;;;;;2.88;1.45;;;;;;;15.54;82.70;99714.13;8281913;28;20122;-55
2022/11/04 13:27:00;;;;;;;10.27;1.50;;;;;;;15.40;82.10;99706.81;8280740;28;20077;-55
2022/11/04 13:35:37;;;;;;;5.70;1.02;;;;;;;14.45;89.56;99716.97;8313951;27;20385;-55
2022/11/04 13:39:49;;;;;;;6.97;1.40;;;;;;;14.05;92.93;99719.97;8317374;28;20042;-55
2022/11/04 13:43:55;;;;;;;4.72;1.42;;;;;;;13.86;95.87;99724.03;8289921;28;20046;-52
2022/11/04 13:47:57;;;;;;;8.00;1.67;;;;;;;13.80;96.06;99732.91;8266898;28;20121;-53
2022/11/04 13:52:05;;;;;;;10.63;1.65;;;;;;;13.68;99.67;99740.63;8274441;28;20178;-54
2022/11/04 13:56:07;;;;;;;6.60;1.48;;;;;;;13.41;100.00;99745.69;8284664;28;20407;-55
2022/11/04 14:04:29;;;;;;;19.45;2.65;;;;;;;13.07;100.00;99764.16;8401412;27;20387;-55
2022/11/04 14:08:31;;;;;;;8.33;1.77;;;;;;;13.07;100.00;99764.16;8367310;28;20051;-55
2022/11/04 14:12:34;;;;;;;11.75;2.05;;;;;;;12.99;100.00;99761.47;8365553;28;20064;-54
2022/11/04 14:17:14;;;;;;;14.20;1.90;;;;;;;13.01;100.00;99779.28;8364507;28;20045;-54
2022/11/04 14:21:18;;;;;;;8.20;2.38;;;;;;;12.89;100.00;99774.34;8355284;28;20041;-53
2022/11/04 14:29:35;;;;;;;8.68;2.63;;;;;;;12.89;100.00;99790.63;8358850;27;20384;-53
2022/11/04 14:33:56;;;;;;;12.90;2.72;;;;;;;12.83;100.00;99794.91;8323832;28;20049;-55
2022/11/04 14:38:04;;;;;;;11.93;2.55;;;;;;;12.80;100.00;99802.53;8346235;28;20128;-54
2022/11/04 14:42:07;;;;;;;6.88;2.65;;;;;;;12.78;100.00;99807.28;8325512;28;20041;-51
2022/11/04 14:46:10;;;;;;;16.50;3.33;;;;;;;12.81;100.00;99817.78;8317437;28;20073;-55
2022/11/04 14:50:27;;;;;;;12.55;4.28;;;;;;;12.78;100.00;99826.28;8313659;28;20073;-53
2022/11/04 14:54:31;;;;;;;11.52;4.05;;;;;;;12.74;100.00;99836.59;8313484;28;20042;-55
2022/11/04 14:58:31;;;;;;;12.55;3.90;;;;;;;12.70;100.00;99839.84;8315302;28;20037;-55
2022/11/04 15:02:34;;;;;;;16.67;3.10;;;;;;;12.76;100.00;99845.44;8304020;28;20096;-55
2022/11/04 15:06:34;;;;;;;9.30;3.10;;;;;;;12.73;100.00;99850.34;8315659;28;20384;-54
2022/11/04 15:10:35;;;;;;;11.82;3.03;;;;;;;12.72;100.00;99851.38;8328069;28;20037;-54
2022/11/04 15:14:36;;;;;;;15.13;3.47;;;;;;;12.68;100.00;99850.84;8332837;28;20041;-52
2022/11/04 15:18:39;;;;;;;9.18;3.30;;;;;;;12.68;100.00;99855.41;8287478;28;20050;-52
2022/11/04 15:22:42;;;;;;;11.75;3.70;;;;;;;12.65;100.00;99869.31;8295123;28;20045;-55
2022/11/04 15:26:48;;;;;;;12.15;3.60;;;;;;;12.64;100.00;99881.19;8281970;28;20053;-55
2022/11/04 15:31:14;;;;;;;15.45;3.90;;;;;;;12.59;100.00;99889.00;8286999;28;20281;-55
2022/11/04 15:35:15;;;;;;;14.80;4.80;;;;;;;12.54;100.00;99891.38;8318386;28;20034;-55
2022/11/04 15:39:21;;;;;;;14.82;4.28;;;;;;;12.50;100.00;99898.97;8285111;28;20063;-55
2022/11/04 15:43:21;;;;;;;14.27;4.25;;;;;;;12.47;100.00;99912.03;8286323;28;20033;-54
2022/11/04 15:47:27;;;;;;;19.73;3.67;;;;;;;12.47;100.00;99912.03;8289944;28;20533;-54
2022/11/04 15:51:33;;;;;;;10.65;3.17;;;;;;;12.47;100.00;99926.41;8274478;28;20323;-51
2022/11/04 15:55:36;;;;;;;12.75;3.47;;;;;;;12.44;100.00;99926.75;8284657;28;20120;-55
2022/11/04 15:59:43;;;;;;;11.10;3.77;;;;;;;12.47;100.00;99933.72;8301833;28;20113;-54
2022/11/04 16:03:56;;;;;;;17.67;6.85;;;;;;;12.43;100.00;99935.91;8319444;28;20770;-55
2022/11/04 16:08:21;;;;;;;11.23;4.35;;;;;;;12.36;100.00;99947.59;8268940;28;20042;-55
2022/11/04 16:17:10;;;;;;;12.93;4.47;;;;;;;12.29;100.00;99951.97;8388761;27;20393;-55
2022/11/04 16:21:30;;;;;;;17.00;3.65;;;;;;;12.34;100.00;99968.56;8404047;27;20374;-54
2022/11/04 16:25:34;;;;;;;15.27;3.63;;;;;;;12.27;100.00;99960.28;8399524;28;20043;-56
2022/11/04 16:29:36;;;;;;;15.10;4.85;;;;;;;12.10;100.00;99973.94;8402230;28;20081;-55
2022/11/04 16:33:36;;;;;;;15.05;4.90;;;;;;;11.99;100.00;99982.34;8410847;28;20060;-55
2022/11/04 16:37:37;;;;;;;15.18;5.15;;;;;;;11.92;100.00;99981.31;8403076;28;20040;-55
2022/11/04 16:41:39;;;;;;;21.70;7.18;;;;;;;11.82;100.00;99982.28;8397365;28;20047;-56
2022/11/04 16:45:44;;;;;;;11.63;7.00;;;;;;;11.78;100.00;99994.41;8393899;28;20061;-55
2022/11/04 16:49:45;;;;;;;;;;;;;;;11.74;100.00;99992.19;8386610;28;20034;-56
2022/11/04 16:53:49;;;;;;;17.70;7.82;;;;;;;11.70;100.00;99996.25;8363889;28;20101;-54
2022/11/04 16:57:57;;;;;;;14.10;7.70;;;;;;;11.84;100.00;100011.91;8373289;28;20118;-56
2022/11/04 17:01:57;;;;;;;22.08;9.18;;;;;;;11.92;100.00;100014.63;8364129;28;20116;-56
2022/11/04 17:05:58;;;;;;;22.75;10.02;;;;;;;11.95;100.00;100021.63;8400151;28;20085;-56
2022/11/04 17:09:59;;;;;;;15.43;8.20;;;;;;;12.02;100.00;100014.53;8382379;28;20044;-53
2022/11/04 17:13:59;;;;;;;22.80;7.30;;;;;;;11.98;100.00;100029.41;8386000;28;20131;-55
2022/11/04 17:18:00;;;;;;;15.02;7.88;;;;;;;11.95;100.00;100024.31;8401122;28;20048;-55
2022/11/04 17:22:04;;;;;;;17.27;9.05;;;;;;;11.87;100.00;100034.09;8377577;28;20417;-55
2022/11/04 17:26:05;;;;;;;16.73;9.00;;;;;;;11.92;100.00;100030.06;8377311;28;20553;-56
2022/11/04 17:30:06;;;;;;;19.25;8.10;;;;;;;11.95;100.00;100037.88;8370606;28;20424;-54
2022/11/04 17:34:07;;;;;;;21.23;9.45;;;;;;;11.88;100.00;100051.19;8375357;28;20037;-52
2022/11/04 17:38:10;;;;;;;24.27;10.30;;;;;;;11.88;100.00;100052.06;8382919;28;20037;-55
2022/11/04 17:46:33;;;;;;;19.92;9.20;;;;;;;11.76;100.00;100061.47;8339051;28;20116;-56
2022/11/04 17:50:35;;;;;;;23.55;9.25;;;;;;;11.75;100.00;100081.41;8353653;28;20112;-56
2022/11/04 17:54:35;;;;;;;25.35;9.60;;;;;;;11.84;100.00;100076.91;8355183;28;20045;-56
2022/11/04 17:58:36;;;;;;;23.70;10.43;;;;;;;11.87;100.00;100090.97;8373093;28;22083;-55
2022/11/04 18:02:37;;;;;;;19.33;9.48;;;;;;;11.85;100.00;100101.13;8382637;28;20037;-53
2022/11/04 18:06:37;;;;;;;24.42;11.02;;;;;;;11.85;100.00;100094.84;8359636;28;20394;-55
2022/11/04 18:10:38;;;;;;;26.05;11.15;;;;;;;11.90;100.00;100098.78;8352605;28;20491;-55
2022/11/04 18:14:39;;;;;;;21.65;11.13;;;;;;;11.92;100.00;100092.38;8355005;28;20029;-56
2022/11/04 18:18:40;;;;;;;33.15;11.57;;;;;;;11.93;100.00;100096.75;8340089;28;20067;-55
2022/11/04 18:22:42;;;;;;;31.27;11.70;;;;;;;11.92;100.00;100105.91;8343556;28;20037;-55
2022/11/04 18:26:45;;;;;;;23.98;10.32;;;;;;;11.85;100.00;100111.97;8354477;28;20045;-56
2022/11/04 18:30:47;;;;;;;26.40;11.88;;;;;;;11.83;100.00;100110.41;8357639;28;20541;-56
2022/11/04 18:34:51;;;;;;;27.50;12.27;;;;;;;11.86;100.00;100120.91;8351965;28;20044;-56
2022/11/04 18:38:53;;;;;;;;;;;;;;;11.79;100.00;100128.84;8336318;28;20041;-55
2022/11/04 18:42:56;;;;;;;25.27;12.57;;;;;;;11.77;100.00;100125.44;8375174;28;20382;-55
2022/11/04 18:46:58;;;;;;;25.98;13.20;;;;;;;11.68;100.00;100126.38;8364753;28;20032;-56
2022/11/04 18:51:00;;;;;;;30.92;13.88;;;;;;;11.51;100.00;100129.94;8379724;28;20046;-56
2022/11/04 18:55:01;;;;;;;25.23;14.18;;;;;;;11.63;100.00;100134.13;8319214;28;20036;-56
2022/11/04 18:59:03;;;;;;;26.35;15.27;;;;;;;11.59;100.00;100135.41;8346754;28;20525;-55
2022/11/04 19:03:04;;;;;;;27.90;14.93;;;;;;;11.65;100.00;100137.53;8364084;28;20380;-56
2022/11/04 19:07:04;;;;;;;30.25;15.27;;;;;;;11.66;100.00;100139.25;8371789;28;20032;-54
2022/11/04 19:11:14;;;;;;;29.48;16.23;;;;;;;11.55;100.00;100144.84;8368631;28;20036;-55
2022/11/04 19:15:15;;;;;;;28.33;15.70;;;;;;;11.48;100.00;100146.50;8360733;28;20125;-55
2022/11/04 19:19:16;;;;;;;32.83;15.55;;;;;;;11.26;100.00;100152.34;8334425;28;20495;-55
2022/11/04 19:23:18;;;;;;;31.27;18.52;;;;;;;11.20;100.00;100154.84;8324560;28;20052;-54
2022/11/04 19:27:21;;;;;;;43.70;22.15;;;;;;;11.19;100.00;100162.09;8323551;28;20037;-56
2022/11/04 19:31:26;;;;;;;48.22;24.80;;;;;;;11.15;100.00;100176.94;8377543;28;20080;-55
2022/11/04 19:35:27;;;;;;;62.42;26.83;;;;;;;11.17;100.00;100174.94;8363922;28;20045;-54
2022/11/04 19:39:28;;;;;;;52.83;25.25;;;;;;;11.20;100.00;100182.72;8354606;28;20041;-56
2022/11/04 19:43:29;;;;;;;50.33;24.63;;;;;;;11.16;100.00;100194.84;8355317;28;20067;-56
2022/11/04 19:47:30;;;;;;;41.58;21.02;;;;;;;10.95;100.00;100193.44;8353166;28;20040;-52
2022/11/04 19:51:31;;;;;;;35.25;17.08;;;;;;;10.90;100.00;100193.91;8324232;28;20561;-55
2022/11/04 19:55:31;;;;;;;40.47;19.20;;;;;;;10.85;100.00;100207.00;8324111;28;20041;-53
2022/11/04 19:59:32;;;;;;;34.42;18.55;;;;;;;10.84;100.00;100209.84;8333996;28;20056;-55
2022/11/04 20:03:34;;;;;;;42.08;19.02;;;;;;;10.87;100.00;100210.41;8356095;28;20045;-55
2022/11/04 20:07:35;;;;;;;40.30;19.67;;;;;;;11.09;100.00;100223.53;8356618;28;20045;-55